Time;durP1;ratioP1;P1;durP2;ratioP2;P2;SDS_P1;SDS_P2;PMS_P1;PMS_P2;Temp;Humidity;BMP_temperature;BMP_pressure;BME280_temperature;BME280_humidity;BME280_pressure;Samples;Min_cycle;Max_cycle;Signal;HPM_P1;HPM_P2
2022/08/08 00:00:23;;;;;;;4.87;4.07;;;;;;;;;;5135831;27;20690;-56
2022/08/08 00:02:56;;;;;;;5.40;4.27;;;;;;;;;;5134971;27;20193;-58
2022/08/08 00:05:25;;;;;;;4.93;3.80;;;;;;;;;;5133974;27;20203;-57
2022/08/08 00:07:56;;;;;;;4.70;4.30;;;;;;;;;;5135753;27;20256;-57
2022/08/08 00:10:24;;;;;;;4.77;4.37;;;;;;;;;;5135294;27;20197;-55
2022/08/08 00:12:52;;;;;;;5.93;4.23;;;;;;;;;;5135269;27;20225;-56
2022/08/08 00:15:19;;;;;;;5.17;4.60;;;;;;;;;;5134317;27;20205;-56
2022/08/08 00:17:48;;;;;;;5.30;4.80;;;;;;;;;;5134412;27;20494;-57
2022/08/08 00:20:17;;;;;;;5.20;4.65;;;;;;;;;;5132184;27;20788;-56
2022/08/08 00:22:45;;;;;;;5.77;4.40;;;;;;;;;;5135793;27;20194;-57
2022/08/08 00:25:13;;;;;;;4.93;4.37;;;;;;;;;;5133718;27;20749;-56
2022/08/08 00:27:40;;;;;;;6.43;4.60;;;;;;;;;;5135538;27;20190;-57
2022/08/08 00:30:09;;;;;;;5.05;4.60;;;;;;;;;;5134234;27;20819;-56
2022/08/08 00:32:40;;;;;;;4.70;4.30;;;;;;;;;;5135176;27;20315;-58
2022/08/08 00:35:22;;;;;;;5.32;4.82;;;;;;;;;;5132482;27;20422;-56
2022/08/08 00:37:55;;;;;;;4.70;4.30;;;;;;;;;;5134010;27;20507;-58
2022/08/08 00:40:40;;;;;;;5.10;4.20;;;;;;;;;;5135117;27;20201;-57
2022/08/08 00:43:24;;;;;;;5.20;4.70;;;;;;;;;;5135424;27;20186;-56
2022/08/08 00:46:11;;;;;;;4.83;4.33;;;;;;;;;;5134825;27;20217;-56
2022/08/08 00:48:55;;;;;;;5.13;4.63;;;;;;;;;;5090943;27;20402;-56
2022/08/08 00:51:39;;;;;;;5.95;4.93;;;;;;;;;;5133557;27;20914;-56
2022/08/08 00:54:23;;;;;;;5.33;4.93;;;;;;;;;;5133939;27;20510;-56
2022/08/08 00:57:02;;;;;;;5.35;4.85;;;;;;;;;;5082071;27;20927;-56
2022/08/08 00:59:53;;;;;;;4.80;4.40;;;;;;;;;;5135183;27;20206;-59
2022/08/08 01:02:38;;;;;;;4.50;4.10;;;;;;;;;;5135040;27;20193;-56
2022/08/08 01:05:14;;;;;;;5.07;4.60;;;;;;;;;;5134909;27;20197;-58
2022/08/08 01:07:59;;;;;;;6.10;4.40;;;;;;;;;;5134730;27;20236;-58
2022/08/08 01:10:40;;;;;;;5.00;4.50;;;;;;;;;;5133617;27;20193;-56
2022/08/08 01:13:30;;;;;;;5.68;5.18;;;;;;;;;;5130221;27;20926;-56
2022/08/08 01:16:00;;;;;;;5.80;5.03;;;;;;;;;;5134516;27;20262;-56
2022/08/08 01:18:53;;;;;;;5.80;5.10;;;;;;;;;;5134597;27;20205;-57
2022/08/08 01:21:28;;;;;;;7.00;5.30;;;;;;;;;;5134673;27;20204;-56
2022/08/08 01:24:19;;;;;;;7.17;5.60;;;;;;;;;;5133694;27;20200;-56
2022/08/08 01:26:55;;;;;;;5.70;5.10;;;;;;;;;;5134345;27;20196;-57
2022/08/08 01:29:32;;;;;;;5.40;4.90;;;;;;;;;;5134436;27;20190;-56
2022/08/08 01:32:15;;;;;;;7.50;5.30;;;;;;;;;;5134509;27;20212;-56
2022/08/08 01:35:05;;;;;;;5.47;4.83;;;;;;;;;;5133665;27;20205;-56
2022/08/08 01:38:01;;;;;;;7.03;5.20;;;;;;;;;;5134461;27;20208;-56
2022/08/08 01:40:29;;;;;;;5.63;5.03;;;;;;;;;;5134154;27;20621;-56
2022/08/08 01:42:59;;;;;;;6.53;4.70;;;;;;;;;;5134272;27;20269;-57
2022/08/08 01:45:41;;;;;;;4.93;4.43;;;;;;;;;;5133850;27;20221;-56
2022/08/08 01:48:11;;;;;;;5.63;5.03;;;;;;;;;;5134059;27;20272;-56
2022/08/08 01:50:43;;;;;;;6.33;5.10;;;;;;;;;;5133918;27;20218;-56
2022/08/08 01:53:15;;;;;;;5.63;5.00;;;;;;;;;;5134088;27;20221;-56
2022/08/08 01:55:47;;;;;;;5.27;4.77;;;;;;;;;;5134085;27;20198;-57
2022/08/08 01:58:20;;;;;;;6.27;5.03;;;;;;;;;;5133904;27;20198;-58
2022/08/08 02:00:53;;;;;;;7.47;5.37;;;;;;;;;;5134016;27;20197;-56
2022/08/08 02:03:25;;;;;;;5.93;4.90;;;;;;;;;;5133834;27;20268;-56
2022/08/08 02:05:55;;;;;;;6.87;5.10;;;;;;;;;;5133792;27;20242;-56
2022/08/08 02:08:26;;;;;;;6.63;5.20;;;;;;;;;;5131898;27;20252;-56
2022/08/08 02:10:59;;;;;;;5.70;4.77;;;;;;;;;;5133667;27;20201;-57
2022/08/08 02:13:28;;;;;;;5.77;5.27;;;;;;;;;;5132528;27;20328;-57
2022/08/08 02:15:57;;;;;;;5.97;5.23;;;;;;;;;;5132564;27;20563;-57
2022/08/08 02:18:26;;;;;;;6.07;5.57;;;;;;;;;;5132683;27;20594;-56
2022/08/08 02:23:45;;;;;;;6.67;5.60;;;;;;;;;;5133032;27;20196;-56
2022/08/08 02:26:15;;;;;;;6.13;5.50;;;;;;;;;;5133540;27;20240;-56
2022/08/08 02:28:53;;;;;;;7.77;5.13;;;;;;;;;;5133212;27;20734;-56
2022/08/08 02:31:27;;;;;;;6.47;5.87;;;;;;;;;;5133276;27;20275;-56
2022/08/08 02:34:02;;;;;;;6.57;5.97;;;;;;;;;;5133167;27;20258;-56
2022/08/08 02:36:38;;;;;;;6.47;5.73;;;;;;;;;;5133456;27;20194;-56
2022/08/08 02:39:28;;;;;;;6.03;5.43;;;;;;;;;;5133190;27;20639;-56
2022/08/08 02:42:20;;;;;;;5.90;5.30;;;;;;;;;;5107440;27;20856;-56
2022/08/08 02:45:02;;;;;;;7.77;5.97;;;;;;;;;;5132722;27;20213;-56
2022/08/08 02:47:39;;;;;;;8.50;6.10;;;;;;;;;;5133093;27;20208;-56
2022/08/08 02:50:21;;;;;;;6.53;6.03;;;;;;;;;;5132921;27;20573;-56
2022/08/08 02:52:55;;;;;;;6.80;6.10;;;;;;;;;;5132981;27;20217;-56
2022/08/08 02:55:36;;;;;;;6.73;6.03;;;;;;;;;;5132939;27;20277;-56
2022/08/08 02:58:20;;;;;;;7.27;5.70;;;;;;;;;;5132882;27;20193;-56
2022/08/08 03:01:02;;;;;;;6.90;6.20;;;;;;;;;;5131570;27;20737;-56
2022/08/08 03:03:43;;;;;;;6.40;5.63;;;;;;;;;;5131787;27;20223;-57
2022/08/08 03:06:27;;;;;;;6.63;6.03;;;;;;;;;;5132868;27;20577;-57
2022/08/08 03:09:36;;;;;;;6.83;6.17;;;;;;;;;;5132311;27;20598;-56
2022/08/08 03:12:21;;;;;;;8.50;5.97;;;;;;;;;;5131321;27;20200;-56
2022/08/08 03:14:51;;;;;;;5.67;5.10;;;;;;;;;;5132918;27;20193;-56
2022/08/08 03:17:21;;;;;;;6.03;5.40;;;;;;;;;;5132673;27;20197;-56
2022/08/08 03:20:20;;;;;;;6.00;5.50;;;;;;;;;;5132468;27;20209;-56
2022/08/08 03:22:47;;;;;;;7.07;5.70;;;;;;;;;;5131906;27;20216;-56
2022/08/08 03:25:14;;;;;;;6.40;5.80;;;;;;;;;;5132541;27;20679;-56
2022/08/08 03:27:41;;;;;;;7.47;6.13;;;;;;;;;;5132519;27;20213;-56
2022/08/08 03:30:08;;;;;;;6.43;5.80;;;;;;;;;;5131093;28;20201;-56
2022/08/08 03:35:21;;;;;;;7.00;6.30;;;;;;;;;;5132468;27;20197;-56
2022/08/08 03:37:48;;;;;;;8.67;6.33;;;;;;;;;;5132449;27;20239;-56
2022/08/08 03:40:16;;;;;;;9.27;6.67;;;;;;;;;;5132459;27;20202;-56
2022/08/08 03:42:42;;;;;;;8.90;6.47;;;;;;;;;;5132504;27;20581;-56
2022/08/08 03:45:12;;;;;;;7.30;6.23;;;;;;;;;;5130860;27;20252;-56
2022/08/08 03:47:38;;;;;;;7.38;6.68;;;;;;;;;;5128967;27;20391;-56
2022/08/08 03:50:05;;;;;;;7.70;7.00;;;;;;;;;;5130754;28;20386;-56
2022/08/08 03:52:31;;;;;;;7.70;6.93;;;;;;;;;;5130513;27;20530;-56
2022/08/08 03:54:58;;;;;;;7.50;6.70;;;;;;;;;;5130573;28;20383;-56
2022/08/08 03:57:24;;;;;;;7.18;6.40;;;;;;;;;;5130796;27;20402;-56
2022/08/08 03:59:50;;;;;;;7.50;6.80;;;;;;;;;;5130499;28;20587;-56
2022/08/08 04:02:16;;;;;;;7.88;7.10;;;;;;;;;;5130610;28;20430;-61
2022/08/08 04:04:42;;;;;;;7.40;6.80;;;;;;;;;;5130014;27;20410;-56
2022/08/08 04:07:08;;;;;;;6.60;5.90;;;;;;;;;;5131257;28;20230;-56
2022/08/08 04:09:35;;;;;;;6.57;5.97;;;;;;;;;;5131824;27;20197;-56
2022/08/08 04:12:02;;;;;;;6.70;6.00;;;;;;;;;;5131855;28;20194;-56
2022/08/08 04:14:28;;;;;;;7.17;6.17;;;;;;;;;;5131841;27;20201;-56
2022/08/08 04:16:55;;;;;;;6.43;5.80;;;;;;;;;;5131575;28;20721;-56
2022/08/08 04:19:21;;;;;;;7.57;6.40;;;;;;;;;;5131782;27;20209;-58
2022/08/08 04:21:47;;;;;;;7.83;6.10;;;;;;;;;;5131686;28;20201;-56
2022/08/08 04:24:13;;;;;;;6.73;5.93;;;;;;;;;;5131466;28;20223;-56
2022/08/08 04:26:39;;;;;;;6.63;6.03;;;;;;;;;;5130713;28;20220;-56
2022/08/08 04:29:06;;;;;;;6.70;6.10;;;;;;;;;;5131769;28;20202;-56
2022/08/08 04:31:32;;;;;;;6.87;6.27;;;;;;;;;;5131682;27;20211;-56
2022/08/08 04:33:58;;;;;;;7.53;6.37;;;;;;;;;;5131490;28;20658;-55
2022/08/08 04:36:25;;;;;;;7.30;6.60;;;;;;;;;;5131472;28;20201;-56
2022/08/08 04:38:51;;;;;;;7.07;6.37;;;;;;;;;;5129991;27;20676;-55
2022/08/08 04:41:17;;;;;;;7.00;6.30;;;;;;;;;;5131630;27;20189;-56
2022/08/08 04:43:43;;;;;;;11.63;6.70;;;;;;;;;;5131253;27;20190;-56
2022/08/08 04:46:11;;;;;;;9.63;6.53;;;;;;;;;;5134415;27;20232;-55
2022/08/08 04:48:37;;;;;;;7.63;6.83;;;;;;;;;;5135079;27;20193;-56
2022/08/08 04:51:03;;;;;;;10.87;7.07;;;;;;;;;;5135171;27;20189;-56
2022/08/08 04:53:29;;;;;;;8.40;7.30;;;;;;;;;;5135116;27;20312;-56
2022/08/08 04:55:55;;;;;;;12.30;7.80;;;;;;;;;;5134966;27;20280;-55
2022/08/08 04:58:21;;;;;;;9.20;7.37;;;;;;;;;;5134945;27;20569;-55
2022/08/08 05:00:47;;;;;;;8.43;7.30;;;;;;;;;;5134896;27;20284;-56
2022/08/08 05:03:14;;;;;;;7.80;7.00;;;;;;;;;;5134972;27;20228;-56
2022/08/08 05:05:40;;;;;;;9.97;7.73;;;;;;;;;;5134718;27;20220;-56
2022/08/08 05:08:06;;;;;;;9.60;7.27;;;;;;;;;;5134661;27;20762;-56
2022/08/08 05:10:32;;;;;;;9.60;7.60;;;;;;;;;;5134842;27;20231;-56
2022/08/08 05:12:58;;;;;;;10.53;7.70;;;;;;;;;;5134464;27;20710;-56
2022/08/08 05:15:24;;;;;;;8.40;7.60;;;;;;;;;;5134799;27;20202;-56
2022/08/08 05:17:50;;;;;;;10.23;8.00;;;;;;;;;;5134488;27;20697;-56
2022/08/08 05:20:18;;;;;;;10.17;8.03;;;;;;;;;;5133544;27;20198;-56
2022/08/08 05:22:44;;;;;;;8.47;7.63;;;;;;;;;;5133123;27;20200;-57
2022/08/08 05:25:11;;;;;;;9.13;8.23;;;;;;;;;;5134977;27;20201;-56
2022/08/08 05:27:37;;;;;;;9.37;7.63;;;;;;;;;;5134582;27;20228;-56
2022/08/08 05:30:03;;;;;;;8.10;7.30;;;;;;;;;;5134445;27;20232;-56
2022/08/08 05:32:29;;;;;;;7.87;7.17;;;;;;;;;;5134273;27;20232;-56
2022/08/08 05:34:58;;;;;;;8.70;7.63;;;;;;;;;;5134238;27;20575;-55
2022/08/08 05:37:29;;;;;;;7.73;6.70;;;;;;;;;;5134205;27;20647;-56
2022/08/08 05:39:55;;;;;;;7.53;6.67;;;;;;;;;;5131837;27;20266;-56
2022/08/08 05:42:23;;;;;;;6.57;5.73;;;;;;;;;;5134158;27;20193;-56
2022/08/08 05:44:49;;;;;;;8.30;6.37;;;;;;;;;;5134168;27;20631;-56
2022/08/08 05:47:15;;;;;;;6.97;5.67;;;;;;;;;;5134187;27;20193;-56
2022/08/08 05:49:43;;;;;;;6.50;5.20;;;;;;;;;;5133933;27;20193;-56
2022/08/08 05:52:09;;;;;;;6.57;5.13;;;;;;;;;;5134068;27;20243;-56
2022/08/08 05:54:37;;;;;;;5.33;4.93;;;;;;;;;;5133763;27;20638;-56
2022/08/08 05:57:03;;;;;;;6.87;5.07;;;;;;;;;;5133641;27;20228;-56
2022/08/08 05:59:30;;;;;;;6.33;5.53;;;;;;;;;;5134116;27;20189;-56
2022/08/08 06:01:57;;;;;;;6.37;5.47;;;;;;;;;;5133648;27;20197;-56
2022/08/08 06:04:24;;;;;;;5.80;5.20;;;;;;;;;;5133689;27;20215;-56
2022/08/08 06:06:51;;;;;;;5.80;5.17;;;;;;;;;;5133287;27;20229;-56
2022/08/08 06:09:20;;;;;;;5.10;4.60;;;;;;;;;;5133630;27;20250;-57
2022/08/08 06:11:47;;;;;;;5.03;4.40;;;;;;;;;;5133493;27;20206;-56
2022/08/08 06:14:14;;;;;;;4.60;3.80;;;;;;;;;;5133097;27;20221;-56
2022/08/08 06:16:41;;;;;;;5.20;4.27;;;;;;;;;;5133820;27;20646;-57
2022/08/08 06:19:08;;;;;;;6.70;4.37;;;;;;;;;;5130885;27;20283;-56
2022/08/08 06:21:35;;;;;;;4.67;4.13;;;;;;;;;;5132741;27;20197;-56
2022/08/08 06:24:02;;;;;;;4.70;3.40;;;;;;;;;;5131751;27;20246;-57
2022/08/08 06:26:30;;;;;;;4.37;3.87;;;;;;;;;;5131979;27;20201;-57
2022/08/08 06:28:58;;;;;;;5.40;3.83;;;;;;;;;;5133450;27;20195;-57
2022/08/08 06:31:25;;;;;;;5.27;3.60;;;;;;;;;;5130891;27;20222;-57
2022/08/08 06:33:56;;;;;;;5.40;3.33;;;;;;;;;;5132623;27;20226;-57
2022/08/08 06:36:28;;;;;;;4.67;3.27;;;;;;;;;;5133199;27;20192;-57
2022/08/08 06:38:55;;;;;;;4.03;3.33;;;;;;;;;;5132988;27;20204;-58
2022/08/08 06:41:22;;;;;;;3.97;3.07;;;;;;;;;;5131469;27;20291;-57
2022/08/08 06:43:50;;;;;;;3.30;2.60;;;;;;;;;;5133126;27;20199;-57
2022/08/08 06:46:17;;;;;;;2.73;2.53;;;;;;;;;;5132977;27;20593;-58
2022/08/08 06:48:44;;;;;;;4.23;3.13;;;;;;;;;;5129470;27;20205;-57
2022/08/08 06:51:11;;;;;;;2.90;2.57;;;;;;;;;;5132022;27;20193;-58
2022/08/08 06:53:37;;;;;;;4.07;2.50;;;;;;;;;;5132358;27;20224;-57
2022/08/08 06:56:03;;;;;;;3.67;2.43;;;;;;;;;;5132748;27;20200;-57
2022/08/08 06:58:29;;;;;;;3.97;2.70;;;;;;;;;;5132285;27;20723;-57
2022/08/08 07:00:56;;;;;;;3.63;2.40;;;;;;;;;;5132190;27;20208;-57
2022/08/08 07:03:32;;;;;;;3.20;2.20;;;;;;;;;;5132573;27;20188;-58
2022/08/08 07:06:00;;;;;;;3.13;2.50;;;;;;;;;;5130977;27;20285;-57
2022/08/08 07:08:28;;;;;;;3.83;2.40;;;;;;;;;;5130465;27;20802;-58
2022/08/08 07:10:58;;;;;;;4.00;2.13;;;;;;;;;;5132210;27;20201;-58
2022/08/08 07:13:26;;;;;;;3.10;2.27;;;;;;;;;;5132212;27;20221;-57
2022/08/08 07:15:58;;;;;;;3.17;2.63;;;;;;;;;;5131992;27;20206;-58
2022/08/08 07:18:29;;;;;;;2.53;2.23;;;;;;;;;;5132303;27;20197;-58
2022/08/08 07:20:58;;;;;;;3.47;1.90;;;;;;;;;;5131884;27;20235;-58
2022/08/08 07:23:31;;;;;;;3.43;2.00;;;;;;;;;;5130848;27;20198;-58
2022/08/08 07:25:59;;;;;;;2.23;2.00;;;;;;;;;;5131651;27;20202;-57
2022/08/08 07:28:26;;;;;;;2.67;2.10;;;;;;;;;;5132076;27;20667;-58
2022/08/08 07:30:52;;;;;;;2.93;2.40;;;;;;;;;;5130734;27;20702;-58
2022/08/08 07:33:19;;;;;;;2.40;2.20;;;;;;;;;;5132242;27;20312;-58
2022/08/08 07:35:46;;;;;;;2.90;2.33;;;;;;;;;;5132186;28;20201;-58
2022/08/08 07:38:16;;;;;;;2.77;2.03;;;;;;;;;;5132109;28;20253;-54
2022/08/08 07:40:44;;;;;;;5.40;2.10;;;;;;;;;;5131960;28;20260;-55
2022/08/08 07:43:11;;;;;;;2.90;2.23;;;;;;;;;;5131676;27;20280;-58
2022/08/08 07:45:37;;;;;;;3.03;2.20;;;;;;;;;;5131822;28;20232;-59
2022/08/08 07:48:03;;;;;;;3.17;2.23;;;;;;;;;;5130574;27;20201;-60
2022/08/08 07:50:30;;;;;;;4.37;2.20;;;;;;;;;;5132270;28;20229;-59
2022/08/08 07:52:58;;;;;;;2.83;2.40;;;;;;;;;;5131859;27;20229;-59
2022/08/08 07:55:26;;;;;;;3.83;2.10;;;;;;;;;;5131283;28;20195;-60
2022/08/08 07:57:57;;;;;;;2.70;2.30;;;;;;;;;;5130865;28;20202;-58
2022/08/08 08:00:25;;;;;;;2.70;2.20;;;;;;;;;;5131704;27;20205;-60
2022/08/08 08:03:05;;;;;;;3.53;2.30;;;;;;;;;;5130713;27;20528;-60
2022/08/08 08:05:33;;;;;;;2.93;2.40;;;;;;;;;;5132155;27;20220;-59
2022/08/08 08:08:02;;;;;;;3.80;2.00;;;;;;;;;;5131649;27;20239;-59
2022/08/08 08:10:29;;;;;;;2.27;2.07;;;;;;;;;;5131823;27;20551;-59
2022/08/08 08:13:19;;;;;;;3.90;2.13;;;;;;;;;;5131652;27;20226;-59
2022/08/08 08:15:46;;;;;;;2.80;2.37;;;;;;;;;;5131843;27;20211;-59
2022/08/08 08:18:12;;;;;;;4.07;2.17;;;;;;;;;;5131936;27;20199;-59
2022/08/08 08:20:38;;;;;;;2.73;1.93;;;;;;;;;;5135653;27;20208;-59
2022/08/08 08:23:04;;;;;;;2.90;2.40;;;;;;;;;;5133436;27;20188;-59
2022/08/08 08:25:32;;;;;;;5.07;2.50;;;;;;;;;;5135722;27;20258;-59
2022/08/08 08:27:58;;;;;;;3.30;2.30;;;;;;;;;;5134787;27;20577;-58
2022/08/08 08:30:26;;;;;;;3.73;2.30;;;;;;;;;;5135197;27;20188;-58
2022/08/08 08:32:52;;;;;;;3.27;2.20;;;;;;;;;;5135451;27;20615;-58
2022/08/08 08:35:18;;;;;;;2.60;2.40;;;;;;;;;;5134149;27;20209;-58
2022/08/08 08:37:44;;;;;;;2.50;2.30;;;;;;;;;;5135169;27;20284;-58
2022/08/08 08:40:13;;;;;;;3.37;2.30;;;;;;;;;;5135187;27;20201;-58
2022/08/08 08:42:40;;;;;;;5.20;2.07;;;;;;;;;;5133657;27;20447;-59
2022/08/08 08:45:07;;;;;;;5.60;2.70;;;;;;;;;;5135056;27;20225;-58
2022/08/08 08:47:34;;;;;;;2.47;2.10;;;;;;;;;;5135318;27;20198;-58
2022/08/08 08:50:00;;;;;;;4.07;2.27;;;;;;;;;;5135419;27;20197;-58
2022/08/08 08:52:26;;;;;;;4.40;2.47;;;;;;;;;;5133600;27;20605;-57
2022/08/08 08:54:53;;;;;;;2.83;2.30;;;;;;;;;;5134543;27;20229;-58
2022/08/08 08:57:19;;;;;;;3.50;2.13;;;;;;;;;;5134205;27;20668;-58
2022/08/08 08:59:47;;;;;;;3.13;2.27;;;;;;;;;;5134145;27;20198;-58
2022/08/08 09:02:19;;;;;;;2.70;2.10;;;;;;;;;;5134525;27;20203;-58
2022/08/08 09:04:47;;;;;;;3.80;2.40;;;;;;;;;;5135073;27;20240;-59
2022/08/08 09:07:15;;;;;;;3.17;2.57;;;;;;;;;;5134602;27;20347;-58
2022/08/08 09:09:42;;;;;;;3.27;2.60;;;;;;;;;;5134752;27;20591;-58
2022/08/08 09:12:10;;;;;;;5.07;2.43;;;;;;;;;;5134775;27;20203;-58
2022/08/08 09:14:38;;;;;;;4.63;2.40;;;;;;;;;;5134104;27;20238;-59
2022/08/08 09:17:05;;;;;;;2.73;2.27;;;;;;;;;;5134187;27;20200;-59
2022/08/08 09:19:31;;;;;;;2.90;2.40;;;;;;;;;;5133353;27;20205;-59
2022/08/08 09:21:58;;;;;;;3.03;2.37;;;;;;;;;;5134682;27;20200;-58
2022/08/08 09:24:24;;;;;;;3.17;2.37;;;;;;;;;;5134302;27;20234;-59
2022/08/08 09:26:53;;;;;;;3.47;2.30;;;;;;;;;;5134315;27;20233;-59
2022/08/08 09:29:22;;;;;;;2.83;2.40;;;;;;;;;;5134926;27;20224;-59
2022/08/08 09:31:52;;;;;;;3.40;2.53;;;;;;;;;;5133504;27;20222;-59
2022/08/08 09:34:20;;;;;;;2.93;2.40;;;;;;;;;;5134726;27;20240;-58
2022/08/08 09:36:46;;;;;;;3.67;2.60;;;;;;;;;;5134813;27;20641;-58
2022/08/08 09:39:16;;;;;;;3.03;2.10;;;;;;;;;;5134791;27;20294;-58
2022/08/08 09:41:42;;;;;;;4.97;2.40;;;;;;;;;;5134614;27;20203;-58
2022/08/08 09:44:15;;;;;;;5.77;2.87;;;;;;;;;;5134489;27;20226;-58
2022/08/08 09:46:42;;;;;;;2.57;2.23;;;;;;;;;;5134374;27;20282;-58
2022/08/08 09:49:09;;;;;;;4.87;2.80;;;;;;;;;;5134400;27;20656;-58
2022/08/08 09:51:39;;;;;;;4.83;2.53;;;;;;;;;;5134519;27;20228;-58
2022/08/08 09:54:05;;;;;;;3.77;2.30;;;;;;;;;;5134179;27;20213;-58
2022/08/08 09:56:33;;;;;;;4.77;2.60;;;;;;;;;;5134403;27;20205;-58
2022/08/08 09:59:02;;;;;;;2.90;2.53;;;;;;;;;;5134281;27;20197;-58
2022/08/08 10:01:29;;;;;;;5.87;2.40;;;;;;;;;;5133993;27;20564;-59
2022/08/08 10:03:57;;;;;;;2.83;2.30;;;;;;;;;;5134145;27;20237;-58
2022/08/08 10:06:23;;;;;;;3.93;2.70;;;;;;;;;;5134236;27;20215;-58
2022/08/08 10:08:52;;;;;;;4.43;2.80;;;;;;;;;;5134075;27;20301;-58
2022/08/08 10:11:18;;;;;;;3.23;2.00;;;;;;;;;;5134077;27;20663;-58
2022/08/08 10:13:52;;;;;;;3.03;2.60;;;;;;;;;;5133968;27;20238;-58
2022/08/08 10:16:17;;;;;;;5.00;2.50;;;;;;;;;;5133984;27;20190;-58
2022/08/08 10:18:43;;;;;;;2.87;2.30;;;;;;;;;;5133953;27;20194;-58
2022/08/08 10:21:11;;;;;;;5.77;2.70;;;;;;;;;;5133929;27;20657;-58
2022/08/08 10:23:39;;;;;;;2.53;2.33;;;;;;;;;;5133840;27;20199;-58
2022/08/08 10:26:08;;;;;;;8.20;2.67;;;;;;;;;;5133661;27;20230;-58
2022/08/08 10:28:36;;;;;;;3.23;2.60;;;;;;;;;;5133718;27;20214;-58
2022/08/08 10:33:50;;;;;;;6.07;2.80;;;;;;;;;;5133677;27;20235;-58
2022/08/08 10:36:17;;;;;;;2.47;2.00;;;;;;;;;;5133625;27;20277;-59
2022/08/08 10:38:44;;;;;;;2.50;2.30;;;;;;;;;;5133679;27;20257;-59
2022/08/08 10:41:15;;;;;;;4.23;2.60;;;;;;;;;;5133611;27;20257;-58
2022/08/08 10:43:41;;;;;;;10.97;2.57;;;;;;;;;;5133480;27;20189;-58
2022/08/08 10:46:24;;;;;;;5.03;2.57;;;;;;;;;;5133245;27;20702;-58
2022/08/08 10:48:52;;;;;;;4.97;2.30;;;;;;;;;;5133200;27;20205;-58
2022/08/08 10:51:19;;;;;;;4.00;2.50;;;;;;;;;;5133615;27;20294;-58
2022/08/08 10:53:46;;;;;;;6.70;2.47;;;;;;;;;;5133053;27;20225;-58
2022/08/08 10:56:14;;;;;;;3.43;2.37;;;;;;;;;;5133217;27;20301;-58
2022/08/08 10:58:40;;;;;;;6.87;2.50;;;;;;;;;;5133097;27;20674;-59
2022/08/08 11:01:08;;;;;;;5.57;2.53;;;;;;;;;;5133272;27;20253;-59
2022/08/08 11:03:40;;;;;;;2.80;2.47;;;;;;;;;;5133204;27;20198;-59
2022/08/08 11:06:06;;;;;;;2.47;2.27;;;;;;;;;;5133198;27;20223;-58
2022/08/08 11:08:32;;;;;;;4.57;2.40;;;;;;;;;;5132995;27;20711;-58
2022/08/08 11:11:02;;;;;;;2.83;2.20;;;;;;;;;;5132963;27;20195;-58
2022/08/08 11:13:37;;;;;;;2.47;2.20;;;;;;;;;;5133053;27;20224;-58
2022/08/08 11:16:03;;;;;;;3.07;2.17;;;;;;;;;;5132916;27;20694;-58
2022/08/08 11:18:29;;;;;;;3.43;2.13;;;;;;;;;;5132996;27;20671;-58
2022/08/08 11:20:56;;;;;;;2.53;2.33;;;;;;;;;;5132685;27;20215;-59
2022/08/08 11:23:22;;;;;;;5.20;2.20;;;;;;;;;;5132912;27;20562;-59
2022/08/08 11:25:50;;;;;;;2.30;2.10;;;;;;;;;;5132676;27;20294;-59
2022/08/08 11:28:22;;;;;;;3.10;2.20;;;;;;;;;;5132853;27;20554;-59
2022/08/08 11:30:50;;;;;;;3.00;2.60;;;;;;;;;;5132787;27;20198;-59
2022/08/08 11:33:18;;;;;;;2.63;2.30;;;;;;;;;;5132781;27;20219;-59
2022/08/08 11:35:44;;;;;;;2.93;2.30;;;;;;;;;;5132762;28;20615;-59
2022/08/08 11:38:13;;;;;;;4.37;2.50;;;;;;;;;;5132773;27;20610;-58
2022/08/08 11:40:39;;;;;;;3.93;2.60;;;;;;;;;;5132654;28;20258;-58
2022/08/08 11:43:06;;;;;;;2.77;1.90;;;;;;;;;;5132516;27;20197;-58
2022/08/08 11:45:32;;;;;;;5.23;2.30;;;;;;;;;;5132518;27;20720;-59
2022/08/08 11:47:59;;;;;;;4.87;2.20;;;;;;;;;;5132506;27;20278;-59
2022/08/08 11:50:26;;;;;;;6.27;2.20;;;;;;;;;;5132593;28;20616;-58
2022/08/08 11:52:53;;;;;;;3.70;2.60;;;;;;;;;;5132396;27;20362;-59
2022/08/08 11:55:21;;;;;;;3.00;2.30;;;;;;;;;;5136335;27;20199;-59
2022/08/08 11:57:47;;;;;;;5.50;2.50;;;;;;;;;;5136756;27;20276;-59
2022/08/08 12:00:16;;;;;;;3.27;2.30;;;;;;;;;;5136842;27;20285;-59
2022/08/08 12:02:46;;;;;;;3.40;2.20;;;;;;;;;;5136634;27;20195;-59
2022/08/08 12:05:13;;;;;;;3.50;2.30;;;;;;;;;;5136624;27;20604;-59
2022/08/08 12:07:46;;;;;;;2.80;2.20;;;;;;;;;;5136309;27;20244;-59
2022/08/08 12:10:13;;;;;;;5.60;2.13;;;;;;;;;;5136444;27;20204;-58
2022/08/08 12:12:43;;;;;;;6.33;2.10;;;;;;;;;;5136421;27;20284;-58
2022/08/08 12:15:09;;;;;;;2.87;2.23;;;;;;;;;;5136067;27;20232;-59
2022/08/08 12:17:36;;;;;;;2.53;2.33;;;;;;;;;;5136190;27;20195;-59
2022/08/08 12:20:03;;;;;;;4.23;2.43;;;;;;;;;;5136241;27;20207;-59
2022/08/08 12:22:31;;;;;;;4.40;2.27;;;;;;;;;;5136400;27;20237;-59
2022/08/08 12:24:57;;;;;;;4.17;2.47;;;;;;;;;;5136116;27;20202;-59
2022/08/08 12:27:23;;;;;;;6.90;2.23;;;;;;;;;;5136275;27;20201;-60
2022/08/08 12:29:57;;;;;;;2.50;2.10;;;;;;;;;;5135995;27;20274;-60
2022/08/08 12:32:24;;;;;;;6.57;2.10;;;;;;;;;;5136180;27;20200;-60
2022/08/08 12:34:51;;;;;;;2.43;2.10;;;;;;;;;;5135789;27;20232;-59
2022/08/08 12:37:19;;;;;;;2.17;1.93;;;;;;;;;;5136033;27;20198;-59
2022/08/08 12:39:46;;;;;;;5.90;2.37;;;;;;;;;;5136021;27;20255;-60
2022/08/08 12:42:12;;;;;;;3.00;2.20;;;;;;;;;;5135793;27;20222;-60
2022/08/08 12:44:40;;;;;;;3.97;2.23;;;;;;;;;;5135825;27;20239;-59
2022/08/08 12:47:07;;;;;;;3.83;2.30;;;;;;;;;;5135515;27;20665;-60
2022/08/08 12:49:34;;;;;;;5.70;2.23;;;;;;;;;;5135758;27;20207;-59
2022/08/08 12:52:00;;;;;;;6.10;2.40;;;;;;;;;;5135660;27;20209;-59
2022/08/08 12:54:27;;;;;;;4.57;2.30;;;;;;;;;;5135575;27;20253;-59
2022/08/08 12:56:54;;;;;;;2.47;2.23;;;;;;;;;;5135461;27;20214;-60
2022/08/08 12:59:21;;;;;;;4.73;2.37;;;;;;;;;;5135449;27;20712;-60
2022/08/08 13:01:51;;;;;;;4.07;2.57;;;;;;;;;;5135352;27;20196;-59
2022/08/08 13:04:19;;;;;;;6.00;2.27;;;;;;;;;;5135407;27;20660;-59
2022/08/08 13:06:55;;;;;;;5.57;2.27;;;;;;;;;;5134019;27;20599;-59
2022/08/08 13:09:31;;;;;;;3.67;2.07;;;;;;;;;;5135433;27;20189;-59
2022/08/08 13:11:58;;;;;;;2.60;2.40;;;;;;;;;;5135276;27;20189;-60
2022/08/08 13:14:35;;;;;;;4.00;2.20;;;;;;;;;;5135219;27;20241;-59
2022/08/08 13:17:02;;;;;;;3.87;2.40;;;;;;;;;;5135420;27;20211;-59
2022/08/08 13:19:29;;;;;;;2.33;2.07;;;;;;;;;;5135312;27;20181;-59
2022/08/08 13:21:55;;;;;;;3.40;2.37;;;;;;;;;;5135096;27;20197;-59
2022/08/08 13:24:21;;;;;;;5.47;2.27;;;;;;;;;;5134973;27;20538;-60
2022/08/08 13:26:47;;;;;;;5.23;2.53;;;;;;;;;;5134944;27;20200;-59
2022/08/08 13:29:14;;;;;;;2.60;2.30;;;;;;;;;;5134803;27;20199;-59
2022/08/08 13:31:46;;;;;;;4.07;2.30;;;;;;;;;;5134698;27;20243;-59
2022/08/08 13:34:18;;;;;;;2.30;2.10;;;;;;;;;;5134678;27;20224;-60
2022/08/08 13:36:44;;;;;;;4.67;2.30;;;;;;;;;;5134822;27;20667;-59
2022/08/08 13:39:12;;;;;;;4.53;2.40;;;;;;;;;;5134680;27;20204;-59
2022/08/08 13:41:38;;;;;;;6.73;2.33;;;;;;;;;;5134710;27;20197;-59
2022/08/08 13:44:06;;;;;;;4.10;2.60;;;;;;;;;;5134522;27;20225;-59
2022/08/08 13:46:33;;;;;;;7.20;2.33;;;;;;;;;;5134631;27;20297;-60
2022/08/08 13:48:59;;;;;;;3.00;1.90;;;;;;;;;;5134415;27;20299;-59
2022/08/08 13:51:25;;;;;;;3.43;2.10;;;;;;;;;;5134585;27;20196;-59
2022/08/08 13:53:52;;;;;;;4.07;2.13;;;;;;;;;;5134286;27;20252;-59
2022/08/08 13:56:27;;;;;;;3.53;2.00;;;;;;;;;;5134492;27;20206;-59
2022/08/08 13:58:53;;;;;;;5.60;2.23;;;;;;;;;;5134374;27;20215;-59
2022/08/08 14:01:19;;;;;;;3.50;2.10;;;;;;;;;;5134222;27;20228;-59
2022/08/08 14:03:53;;;;;;;5.43;2.17;;;;;;;;;;5134386;27;20241;-59
2022/08/08 14:06:19;;;;;;;3.73;1.97;;;;;;;;;;5134139;27;20200;-59
2022/08/08 14:08:46;;;;;;;2.90;2.10;;;;;;;;;;5133979;27;20775;-59
2022/08/08 14:11:12;;;;;;;3.47;2.20;;;;;;;;;;5134018;27;20249;-59
2022/08/08 14:13:39;;;;;;;4.50;2.10;;;;;;;;;;5133943;27;20213;-59
2022/08/08 14:16:05;;;;;;;5.17;2.07;;;;;;;;;;5133431;27;20194;-59
2022/08/08 14:18:31;;;;;;;2.20;2.00;;;;;;;;;;5134067;27;20204;-59
2022/08/08 14:21:02;;;;;;;2.77;2.00;;;;;;;;;;5133909;27;20194;-59
2022/08/08 14:23:38;;;;;;;4.13;2.30;;;;;;;;;;5133878;27;20199;-59
2022/08/08 14:26:05;;;;;;;3.00;2.10;;;;;;;;;;5133752;27;20226;-59
2022/08/08 14:28:31;;;;;;;3.00;2.10;;;;;;;;;;5133857;27;20198;-58
2022/08/08 14:31:06;;;;;;;3.93;2.30;;;;;;;;;;5133528;27;20206;-59
2022/08/08 14:33:32;;;;;;;6.70;2.40;;;;;;;;;;5133802;27;20231;-59
2022/08/08 14:35:59;;;;;;;5.80;2.10;;;;;;;;;;5133560;27;20190;-58
2022/08/08 14:38:30;;;;;;;3.03;1.97;;;;;;;;;;5133663;27;20194;-59
2022/08/08 14:40:57;;;;;;;4.43;2.17;;;;;;;;;;5133430;27;20195;-59
2022/08/08 14:43:26;;;;;;;3.90;1.93;;;;;;;;;;5133464;27;20667;-59
2022/08/08 14:46:02;;;;;;;2.40;1.90;;;;;;;;;;5133134;27;20300;-59
2022/08/08 14:48:38;;;;;;;3.63;2.00;;;;;;;;;;5133395;27;20668;-59
2022/08/08 14:51:05;;;;;;;2.77;2.10;;;;;;;;;;5133268;27;20205;-59
2022/08/08 14:53:35;;;;;;;2.43;2.07;;;;;;;;;;5133211;27;20741;-59
2022/08/08 14:56:01;;;;;;;3.40;2.23;;;;;;;;;;5133316;27;20273;-59
2022/08/08 14:58:27;;;;;;;2.90;2.00;;;;;;;;;;5133168;27;20657;-59
2022/08/08 15:00:54;;;;;;;2.57;2.27;;;;;;;;;;5132983;27;20186;-59
2022/08/08 15:03:20;;;;;;;4.13;2.00;;;;;;;;;;5133178;27;20231;-58
2022/08/08 15:05:46;;;;;;;4.43;2.10;;;;;;;;;;5132988;27;20244;-59